aviador You're here:

KAAF Decoded Metar

APALACHICOLA in FL, USA
Report Time2017-12-16 02:53:00
UTC Time2017-12-16 03:30:40
Flight Rules vfr VFR
Wind340° at 04 kt
W.Decomp.*RWY 36: 3.8 kt HW 1.2 kt LCW
RWY 32: 3.7 kt HW 1.6 kt RCW
RWY 06: 0.9 kt HW 3.9 kt LCW
W.Rank340° ranks 13
Current wind is below 340° avg. (6.4)
Visibility9999 m
Phenomena:N/A
Clouds:Overcast 070 Hf
Expected CloudBase > 3,200 ft AGL from Temp-Dew spread
Ceiling7,000 ft
Temp12°C (ISA -3)
Dew Point04°C (58% RH)
AAT9.2°C
QNH1022 hPa
Density Alt-528 ft
Elevation16 ft
Report Wrong Elevation
Raw Report
METAR KAAF 160253Z AUTO 34004KT 10SM OVC070 12/04 A3019 RMK AO2 SLP224
T01220044 53013=

Extra information for KAAF:More info

Metar Taf Metar & Taf Last 4 Metars F.Rules Stats Wind Profile Meteogram Temp Stats Airport Information Weather charts Add Link Nearby VenuesMetar ALERT Operation Metar Decoded Social comments

AIRNAV info for KAAF